createdAt,value
2018-05-04T00:00:55.755Z,94.80
2018-05-04T00:03:21.966Z,94.80
2018-05-04T00:08:16.043Z,94.40
2018-05-04T00:10:42.202Z,95.00
2018-05-04T00:13:08.402Z,94.80
2018-05-04T00:15:34.584Z,94.90
2018-05-04T00:18:00.758Z,95.00
2018-05-04T00:20:26.914Z,95.00
2018-05-04T00:22:53.091Z,95.10
2018-05-04T00:25:19.274Z,95.10
2018-05-04T00:27:45.441Z,94.70
2018-05-04T00:30:11.608Z,94.80
2018-05-04T00:32:40.271Z,95.00
2018-05-04T00:35:08.826Z,95.00
2018-05-04T00:37:37.820Z,94.80
2018-05-04T00:40:06.825Z,95.30
2018-05-04T00:42:36.635Z,95.10
2018-05-04T00:45:03.938Z,94.60
2018-05-04T00:47:30.110Z,94.70
2018-05-04T00:49:57.234Z,94.90
2018-05-04T00:52:23.418Z,95.20
2018-05-04T00:54:49.574Z,94.90
2018-05-04T00:57:15.722Z,95.00
2018-05-04T00:59:41.902Z,95.00
2018-05-04T01:02:08.119Z,95.00
2018-05-04T01:04:34.298Z,95.20
2018-05-04T01:07:01.607Z,94.80
2018-05-04T01:09:27.775Z,95.30
2018-05-04T01:11:53.946Z,95.10
2018-05-04T01:14:20.108Z,95.10
2018-05-04T01:16:46.278Z,95.20
2018-05-04T01:19:13.847Z,94.50
2018-05-04T01:21:40.027Z,94.70
2018-05-04T01:24:06.199Z,94.80
2018-05-04T01:26:32.378Z,95.40
2018-05-04T01:28:59.638Z,94.70
2018-05-04T01:31:25.797Z,94.90
2018-05-04T01:33:51.970Z,94.90
2018-05-04T01:36:18.137Z,95.10
2018-05-04T01:38:45.438Z,94.80
2018-05-04T01:41:11.609Z,94.90
2018-05-04T01:43:37.758Z,95.00
2018-05-04T01:46:03.978Z,95.10
2018-05-04T01:48:30.147Z,95.20
2018-05-04T01:53:24.200Z,94.90
2018-05-04T01:55:51.485Z,94.90
2018-05-04T01:58:17.685Z,95.30
2018-05-04T02:00:43.842Z,95.30
2018-05-04T02:03:10.019Z,95.30
2018-05-04T02:05:36.210Z,95.60
2018-05-04T02:08:02.382Z,95.30
2018-05-04T02:10:28.571Z,95.40
2018-05-04T02:12:54.767Z,95.30
2018-05-04T02:15:21.018Z,95.30
2018-05-04T02:17:48.100Z,95.20
2018-05-04T02:20:14.250Z,95.30
2018-05-04T02:22:40.474Z,95.50
2018-05-04T02:25:06.645Z,95.50
2018-05-04T02:27:32.806Z,95.60
2018-05-04T02:29:58.966Z,95.50
2018-05-04T02:32:25.170Z,95.60
2018-05-04T02:34:51.327Z,95.50
2018-05-04T02:37:17.599Z,95.50
2018-05-04T02:39:43.858Z,95.70
2018-05-04T02:42:10.010Z,95.90
2018-05-04T02:44:37.306Z,95.20
2018-05-04T02:47:03.470Z,95.60
2018-05-04T02:51:57.531Z,95.00
2018-05-04T02:56:51.583Z,95.20
2018-05-04T02:59:18.886Z,95.30
2018-05-04T03:01:45.059Z,95.70
2018-05-04T03:04:11.218Z,95.70
2018-05-04T03:06:37.394Z,95.80
2018-05-04T03:09:03.573Z,95.90
2018-05-04T03:11:30.874Z,95.30
2018-05-04T03:13:57.187Z,95.50
2018-05-04T03:16:23.338Z,95.90
2018-05-04T03:18:50.655Z,95.50
2018-05-04T03:21:16.835Z,95.90
2018-05-04T03:23:43.013Z,95.90
2018-05-04T03:26:10.305Z,95.40
2018-05-04T03:28:36.462Z,95.90
2018-05-04T03:31:03.751Z,95.50
2018-05-04T03:33:29.918Z,96.00
2018-05-04T03:35:56.098Z,96.00
2018-05-04T03:38:22.283Z,95.70
2018-05-04T03:40:48.449Z,96.10
2018-05-04T03:43:15.711Z,95.60
2018-05-04T03:45:42.222Z,96.10
2018-05-04T03:48:08.494Z,96.20
2018-05-04T03:50:34.649Z,95.90
2018-05-04T03:53:01.754Z,96.00
2018-05-04T03:55:27.955Z,96.20
2018-05-04T03:58:07.690Z,96.00
2018-05-04T04:00:45.886Z,96.10
2018-05-04T04:03:25.591Z,96.00
2018-05-04T04:05:51.766Z,96.10
2018-05-04T04:08:17.942Z,95.90
2018-05-04T04:10:45.691Z,96.10
2018-05-04T04:13:11.881Z,96.20
2018-05-04T04:15:38.060Z,96.30
2018-05-04T04:18:04.268Z,96.00
2018-05-04T04:20:31.527Z,95.70
2018-05-04T04:22:57.705Z,96.20
2018-05-04T04:25:23.950Z,96.40
2018-05-04T04:27:50.952Z,96.30
2018-05-04T04:30:18.670Z,95.90
2018-05-04T04:32:44.846Z,96.30
2018-05-04T04:35:11.066Z,96.10
2018-05-04T04:37:37.242Z,96.50
2018-05-04T04:40:03.421Z,96.10
2018-05-04T04:42:29.571Z,96.10
2018-05-04T04:44:55.750Z,96.10
2018-05-04T04:47:22.082Z,96.10
2018-05-04T04:49:48.293Z,96.20
2018-05-04T04:52:14.466Z,96.20
2018-05-04T04:54:40.667Z,96.30
2018-05-04T04:57:07.847Z,96.30
2018-05-04T04:59:34.068Z,96.20
2018-05-04T05:02:00.284Z,96.30
2018-05-04T05:04:27.582Z,95.50
2018-05-04T05:06:53.747Z,96.10
2018-05-04T05:09:20.498Z,96.20
2018-05-04T05:11:46.930Z,96.20
2018-05-04T05:14:14.213Z,96.10
2018-05-04T05:16:40.378Z,96.30
2018-05-04T05:19:07.448Z,96.20
2018-05-04T05:21:33.727Z,96.20
2018-05-04T05:23:59.933Z,96.10
2018-05-04T05:26:27.162Z,96.10
2018-05-04T05:28:54.411Z,95.80
2018-05-04T05:31:21.090Z,96.30
2018-05-04T05:33:49.071Z,96.20
2018-05-04T05:36:15.293Z,96.50
2018-05-04T05:38:41.467Z,96.00
2018-05-04T05:41:07.638Z,96.20
2018-05-04T05:43:33.919Z,96.20
2018-05-04T05:46:00.121Z,96.10
2018-05-04T05:48:27.619Z,95.60
2018-05-04T05:50:53.777Z,96.10
2018-05-04T05:53:21.069Z,95.70
2018-05-04T05:55:47.239Z,96.20
2018-05-04T05:58:13.390Z,96.00
2018-05-04T06:00:39.622Z,95.90
2018-05-04T06:03:05.774Z,95.80
2018-05-04T06:05:31.930Z,95.90
2018-05-04T06:07:58.098Z,96.10
2018-05-04T06:10:24.417Z,95.70
2018-05-04T06:12:50.626Z,95.90
2018-05-04T06:17:45.854Z,94.90
2018-05-04T06:20:12.735Z,95.40
2018-05-04T06:22:38.952Z,95.40
2018-05-04T06:25:06.276Z,94.50
2018-05-04T06:27:32.473Z,94.70
2018-05-04T06:29:58.788Z,94.80
2018-05-04T06:32:24.987Z,95.00
2018-05-04T06:34:51.235Z,95.00
2018-05-04T06:39:45.357Z,94.40
2018-05-04T06:42:11.895Z,94.80
2018-05-04T06:44:38.517Z,94.80
2018-05-04T06:47:04.674Z,94.50
2018-05-04T06:49:31.974Z,94.10
2018-05-04T06:51:58.154Z,94.50
2018-05-04T06:54:24.326Z,94.50
2018-05-04T06:56:50.607Z,94.30
2018-05-04T06:59:16.886Z,94.40
2018-05-04T07:01:43.083Z,94.60
2018-05-04T07:04:10.354Z,93.70
2018-05-04T07:06:36.510Z,94.10
2018-05-04T07:09:02.801Z,94.20
2018-05-04T07:11:28.901Z,94.40
2018-05-04T07:13:55.055Z,94.50
2018-05-04T07:16:22.836Z,94.50
2018-05-04T07:18:49.164Z,94.40
2018-05-04T07:21:15.326Z,94.50
2018-05-04T07:23:41.494Z,94.50
2018-05-04T07:26:07.661Z,94.10
2018-05-04T07:28:33.998Z,93.80
2018-05-04T07:33:29.228Z,93.30
2018-05-04T07:35:55.398Z,93.80
2018-05-04T07:38:21.806Z,93.40
2018-05-04T07:40:49.109Z,93.20
2018-05-04T07:43:15.354Z,93.70
2018-05-04T07:45:41.685Z,93.70
2018-05-04T07:50:35.742Z,93.40
2018-05-04T07:53:03.043Z,92.60
2018-05-04T07:55:29.276Z,93.10
2018-05-04T07:57:55.513Z,93.20
2018-05-04T08:02:52.662Z,93.10
2018-05-04T08:05:18.809Z,93.10
2018-05-04T08:07:44.971Z,93.10
2018-05-04T08:10:12.274Z,92.30
2018-05-04T08:12:38.447Z,92.60
2018-05-04T08:15:04.641Z,92.60
2018-05-04T08:17:32.935Z,91.60
2018-05-04T08:19:59.174Z,91.70
2018-05-04T08:22:26.455Z,91.90
2018-05-04T08:24:53.779Z,92.10
2018-05-04T08:27:20.949Z,92.20
2018-05-04T08:29:47.215Z,92.40
2018-05-04T08:32:13.445Z,92.10
2018-05-04T08:34:39.633Z,92.30
2018-05-04T08:37:05.843Z,91.90
2018-05-04T08:39:32.021Z,92.00
2018-05-04T08:41:58.207Z,92.00
2018-05-04T08:44:25.514Z,91.10
2018-05-04T08:46:51.748Z,91.90
2018-05-04T08:49:17.938Z,91.80
2018-05-04T08:51:45.032Z,91.90
2018-05-04T08:54:11.218Z,91.60
2018-05-04T08:56:37.382Z,91.50
2018-05-04T08:59:05.584Z,91.40
2018-05-04T09:01:31.786Z,91.60
2018-05-04T09:03:57.961Z,91.50
2018-05-04T09:06:24.189Z,91.50
2018-05-04T09:08:50.323Z,91.40
2018-05-04T09:11:16.522Z,91.30
2018-05-04T09:13:42.674Z,91.40
2018-05-04T09:16:10.419Z,91.40
2018-05-04T09:18:36.703Z,91.70
2018-05-04T09:21:03.150Z,92.10
2018-05-04T09:25:57.239Z,91.50
2018-05-04T09:28:23.439Z,91.30
2018-05-04T09:30:51.530Z,90.70
2018-05-04T09:33:17.684Z,91.20
2018-05-04T09:35:44.009Z,91.50
2018-05-04T09:38:11.243Z,91.40
2018-05-04T09:40:37.451Z,91.10
2018-05-04T09:43:03.642Z,91.10
2018-05-04T09:45:29.821Z,91.10
2018-05-04T09:47:56.032Z,91.10
2018-05-04T09:50:22.258Z,91.10
2018-05-04T09:52:48.462Z,91.20
2018-05-04T09:55:14.650Z,91.20
2018-05-04T09:57:42.299Z,90.70
2018-05-04T10:00:08.487Z,91.10
2018-05-04T10:02:34.673Z,91.10
2018-05-04T10:05:00.888Z,91.10
2018-05-04T10:07:27.047Z,91.10
2018-05-04T10:09:54.723Z,90.60
2018-05-04T10:12:20.914Z,90.70
2018-05-04T10:14:47.086Z,90.80
2018-05-04T10:17:13.266Z,90.70
2018-05-04T10:19:39.469Z,90.80
2018-05-04T10:22:06.815Z,90.80
2018-05-04T10:24:32.995Z,89.80
2018-05-04T10:26:59.146Z,89.80
2018-05-04T10:29:25.334Z,89.40
2018-05-04T10:31:53.271Z,86.60
2018-05-04T10:34:19.467Z,87.00
2018-05-04T10:36:45.674Z,87.10
2018-05-04T10:39:12.928Z,86.50
2018-05-04T10:41:39.162Z,85.40
2018-05-04T10:44:06.447Z,82.10
2018-05-04T10:46:32.618Z,83.20
2018-05-04T10:48:59.908Z,82.40
2018-05-04T10:51:26.059Z,82.80
2018-05-04T10:53:53.050Z,83.20
2018-05-04T10:56:19.258Z,83.20
2018-05-04T10:58:45.455Z,83.20
2018-05-04T11:01:11.718Z,83.20
2018-05-04T11:03:37.891Z,82.60
2018-05-04T11:06:04.102Z,82.80
2018-05-04T11:08:30.336Z,82.90
2018-05-04T11:10:56.545Z,83.10
2018-05-04T11:13:23.786Z,82.80
2018-05-04T11:15:49.955Z,82.50
2018-05-04T11:18:16.275Z,82.60
2018-05-04T11:20:42.443Z,81.60
2018-05-04T11:23:08.618Z,81.40
2018-05-04T11:25:34.800Z,81.70
2018-05-04T11:28:02.203Z,80.70
2018-05-04T11:30:28.395Z,81.90
2018-05-04T11:32:54.570Z,81.90
2018-05-04T11:37:48.646Z,79.60
2018-05-04T11:40:14.867Z,78.50
2018-05-04T11:42:41.077Z,78.20
2018-05-04T11:45:07.293Z,78.00
2018-05-04T11:47:33.490Z,76.90
2018-05-04T11:49:59.654Z,74.90
2018-05-04T11:52:25.860Z,72.80
2018-05-04T11:54:52.033Z,71.30
2018-05-04T11:57:18.236Z,69.00
2018-05-04T11:59:44.681Z,67.70
2018-05-04T12:02:10.846Z,65.40
2018-05-04T12:04:37.030Z,64.20
2018-05-04T12:07:03.190Z,64.60
2018-05-04T12:09:29.405Z,64.70
2018-05-04T12:11:56.316Z,65.10
2018-05-04T12:14:22.559Z,65.40
2018-05-04T12:16:48.798Z,65.50
2018-05-04T12:19:14.989Z,66.20
2018-05-04T12:21:41.178Z,66.50
2018-05-04T12:24:07.365Z,67.10
2018-05-04T12:26:33.557Z,67.50
2018-05-04T12:28:59.726Z,69.00
2018-05-04T12:31:26.653Z,70.30
2018-05-04T12:33:53.553Z,71.20
2018-05-04T12:36:19.847Z,71.40
2018-05-04T12:38:46.051Z,69.80
2018-05-04T12:41:12.274Z,69.60
2018-05-04T12:43:38.493Z,69.30
2018-05-04T12:46:04.739Z,65.90
2018-05-04T12:48:30.914Z,64.90
2018-05-04T12:50:57.102Z,64.90
2018-05-04T12:53:23.280Z,64.70
2018-05-04T12:55:50.620Z,59.90
2018-05-04T12:58:16.808Z,60.30
2018-05-04T13:00:42.999Z,60.40
2018-05-04T13:03:09.190Z,60.40
2018-05-04T13:05:35.364Z,60.80
2018-05-04T13:08:01.543Z,61.00
2018-05-04T13:10:27.737Z,61.00
2018-05-04T13:12:53.911Z,60.70
2018-05-04T13:15:20.086Z,60.70
2018-05-04T13:17:46.278Z,61.00
2018-05-04T13:20:13.299Z,60.80
2018-05-04T13:22:39.518Z,61.20
2018-05-04T13:25:05.744Z,61.90
2018-05-04T13:27:31.927Z,61.60
2018-05-04T13:29:58.851Z,61.80
2018-05-04T13:32:25.805Z,64.20
2018-05-04T13:34:51.990Z,65.10
2018-05-04T13:37:18.943Z,65.30
2018-05-04T13:39:45.126Z,66.10
2018-05-04T13:42:11.342Z,67.60
2018-05-04T13:44:37.570Z,68.10
2018-05-04T13:47:04.519Z,68.30
2018-05-04T13:49:30.694Z,68.50
2018-05-04T13:51:56.883Z,68.10
2018-05-04T13:54:23.090Z,69.20
2018-05-04T13:56:49.283Z,69.30
2018-05-04T13:59:15.520Z,70.30
2018-05-04T14:01:41.777Z,69.50
2018-05-04T14:04:07.990Z,70.40
2018-05-04T14:06:35.030Z,70.70
2018-05-04T14:09:02.123Z,70.80
2018-05-04T14:11:31.663Z,70.70
2018-05-04T14:13:57.830Z,70.60
2018-05-04T14:16:24.024Z,70.60
2018-05-04T14:18:50.196Z,69.60
2018-05-04T14:21:17.458Z,67.90
2018-05-04T14:23:43.640Z,68.30
2018-05-04T14:26:10.571Z,69.10
2018-05-04T14:28:37.470Z,69.40
2018-05-04T14:31:03.703Z,69.30
2018-05-04T14:33:30.918Z,69.50
2018-05-04T14:35:57.577Z,69.40
2018-05-04T14:38:24.690Z,70.40
2018-05-04T14:40:51.741Z,70.60
2018-05-04T14:43:18.152Z,71.20
2018-05-04T14:45:45.063Z,72.70
2018-05-04T14:48:11.555Z,73.90
2018-05-04T14:50:37.788Z,75.10
2018-05-04T14:53:04.683Z,76.10
2018-05-04T14:55:31.477Z,76.80
2018-05-04T14:57:58.991Z,77.90
2018-05-04T15:00:25.188Z,78.30
2018-05-04T15:02:51.351Z,79.30
2018-05-04T15:05:17.676Z,80.70
2018-05-04T15:10:11.751Z,81.60
2018-05-04T15:12:37.953Z,83.00
2018-05-04T15:15:06.870Z,81.30
2018-05-04T15:17:33.090Z,81.60
2018-05-04T15:19:59.250Z,82.20
2018-05-04T15:22:26.542Z,82.80
2018-05-04T15:24:52.782Z,83.20
2018-05-04T15:27:18.932Z,83.50
2018-05-04T15:29:45.187Z,84.30
2018-05-04T15:32:11.498Z,84.30
2018-05-04T15:34:37.710Z,85.00
2018-05-04T15:37:05.011Z,84.20
2018-05-04T15:39:31.183Z,85.10
2018-05-04T15:41:57.378Z,84.70
2018-05-04T15:44:23.546Z,84.90
2018-05-04T15:46:49.810Z,85.50
2018-05-04T15:49:20.797Z,85.70
2018-05-04T15:51:53.146Z,85.80
2018-05-04T15:54:19.314Z,85.60
2018-05-04T15:56:45.523Z,85.90
2018-05-04T15:59:11.702Z,86.10
2018-05-04T16:01:37.867Z,86.50
2018-05-04T16:04:04.087Z,86.70
2018-05-04T16:06:30.270Z,86.30
2018-05-04T16:08:56.489Z,86.30
2018-05-04T16:11:22.859Z,86.50
2018-05-04T16:13:49.141Z,86.60
2018-05-04T16:16:15.473Z,86.90
2018-05-04T16:18:42.755Z,86.90
2018-05-04T16:21:09.065Z,87.80
2018-05-04T16:23:35.259Z,87.00
2018-05-04T16:26:02.586Z,86.00
2018-05-04T16:28:29.557Z,87.20
2018-05-04T16:30:55.783Z,86.80
2018-05-04T16:33:21.970Z,87.30
2018-05-04T16:35:48.165Z,86.90
2018-05-04T16:38:14.453Z,87.20
2018-05-04T16:40:40.643Z,87.00
2018-05-04T16:43:06.825Z,87.30
2018-05-04T16:45:33.055Z,87.60
2018-05-04T16:48:06.327Z,86.70
2018-05-04T16:50:33.675Z,86.50
2018-05-04T16:53:00.962Z,87.20
2018-05-04T16:55:27.180Z,88.30
2018-05-04T16:57:53.387Z,88.00
2018-05-04T17:00:19.612Z,88.40
2018-05-04T17:02:45.885Z,88.20
2018-05-04T17:05:12.079Z,88.40
2018-05-04T17:07:39.842Z,88.70
2018-05-04T17:10:06.130Z,89.00
2018-05-04T17:12:33.492Z,88.60
2018-05-04T17:14:59.754Z,89.50
2018-05-04T17:17:26.039Z,89.60
2018-05-04T17:19:52.283Z,89.50
2018-05-04T17:22:18.578Z,90.10
2018-05-04T17:24:44.766Z,90.40
2018-05-04T17:29:39.028Z,90.50
2018-05-04T17:32:06.374Z,90.10
2018-05-04T17:34:32.650Z,90.60
2018-05-04T17:36:58.843Z,90.60
2018-05-04T17:39:25.043Z,90.70
2018-05-04T17:41:51.227Z,90.70
2018-05-04T17:44:17.414Z,90.80
2018-05-04T17:46:43.630Z,90.80
2018-05-04T17:49:09.848Z,90.80
2018-05-04T17:51:36.055Z,90.90
2018-05-04T17:54:02.248Z,91.00
2018-05-04T17:56:28.422Z,91.00
2018-05-04T17:58:54.601Z,91.10
2018-05-04T18:01:21.965Z,90.90
2018-05-04T18:03:48.165Z,91.40
2018-05-04T18:06:15.514Z,91.10
2018-05-04T18:08:41.631Z,91.20
2018-05-04T18:11:07.836Z,91.30
2018-05-04T18:13:34.102Z,91.40
2018-05-04T18:16:00.322Z,91.80
2018-05-04T18:18:27.183Z,92.00
2018-05-04T18:20:54.468Z,91.40
2018-05-04T18:23:21.228Z,91.60
2018-05-04T18:25:47.521Z,91.70
2018-05-04T18:28:13.707Z,91.80
2018-05-04T18:30:39.998Z,92.10
2018-05-04T18:33:07.407Z,91.70
2018-05-04T18:35:33.674Z,92.10
2018-05-04T18:37:59.905Z,92.50
2018-05-04T18:40:26.110Z,92.50
2018-05-04T18:42:52.310Z,92.60
2018-05-04T18:45:18.484Z,92.60
2018-05-04T18:47:44.671Z,92.60
2018-05-04T18:50:11.250Z,92.70
2018-05-04T18:52:38.863Z,92.40
2018-05-04T18:55:05.446Z,92.90
2018-05-04T18:57:31.894Z,92.90
2018-05-04T18:59:58.175Z,92.90
2018-05-04T19:02:30.509Z,93.10
2018-05-04T19:04:56.780Z,93.10
2018-05-04T19:07:24.103Z,93.00
2018-05-04T19:09:50.291Z,93.50
2018-05-04T19:12:16.538Z,93.50
2018-05-04T19:14:42.843Z,93.50
2018-05-04T19:17:10.061Z,93.40
2018-05-04T19:19:36.318Z,93.50
2018-05-04T19:22:02.679Z,93.50
2018-05-04T19:24:28.837Z,93.50
2018-05-04T19:26:55.264Z,93.70
2018-05-04T19:29:21.811Z,93.70
2018-05-04T19:31:49.101Z,93.20
2018-05-04T19:34:15.307Z,93.70
2018-05-04T19:36:41.537Z,93.80
2018-05-04T19:39:08.332Z,93.90
2018-05-04T19:41:34.692Z,93.90
2018-05-04T19:44:01.019Z,93.90
2018-05-04T19:46:27.226Z,94.00
2018-05-04T19:48:53.649Z,93.90
2018-05-04T19:51:19.854Z,93.90
2018-05-04T19:53:46.163Z,93.90
2018-05-04T19:56:12.398Z,93.70
2018-05-04T19:58:38.891Z,93.80
2018-05-04T20:01:05.176Z,93.70
2018-05-04T20:03:31.723Z,93.60
2018-05-04T20:05:57.916Z,93.70
2018-05-04T20:08:24.100Z,93.90
2018-05-04T20:13:18.348Z,93.20
2018-05-04T20:15:44.544Z,93.80
2018-05-04T20:18:12.417Z,93.80
2018-05-04T20:20:39.101Z,94.00
2018-05-04T20:23:06.312Z,93.90
2018-05-04T20:25:34.618Z,93.30
2018-05-04T20:28:03.327Z,93.80
2018-05-04T20:30:31.657Z,93.40
2018-05-04T20:32:57.858Z,93.80
2018-05-04T20:35:24.168Z,94.00
2018-05-04T20:37:50.474Z,93.80
2018-05-04T20:40:16.794Z,94.00
2018-05-04T20:42:42.986Z,94.00
2018-05-04T20:45:09.147Z,93.90
2018-05-04T20:47:38.289Z,94.00
2018-05-04T20:50:04.789Z,94.00
2018-05-04T20:52:31.155Z,93.90
2018-05-04T20:54:57.632Z,94.00
2018-05-04T20:57:23.854Z,94.00
2018-05-04T20:59:50.040Z,94.00
2018-05-04T21:02:17.513Z,93.50
2018-05-04T21:04:43.734Z,94.10
2018-05-04T21:07:10.708Z,94.20
2018-05-04T21:09:37.779Z,94.10
2018-05-04T21:12:04.247Z,94.10
2018-05-04T21:14:30.429Z,94.20
2018-05-04T21:16:56.619Z,94.30
2018-05-04T21:19:23.995Z,93.80
2018-05-04T21:21:50.179Z,94.00
2018-05-04T21:26:44.242Z,94.50
2018-05-04T21:29:12.062Z,94.20
2018-05-04T21:31:38.248Z,94.40
2018-05-04T21:34:04.705Z,94.40
2018-05-04T21:36:30.986Z,94.50
2018-05-04T21:38:57.279Z,94.50
2018-05-04T21:41:23.502Z,94.50
2018-05-04T21:43:49.722Z,94.50
2018-05-04T21:46:15.910Z,94.60
2018-05-04T21:48:43.596Z,94.10
2018-05-04T21:51:11.146Z,94.00
2018-05-04T21:53:37.568Z,94.50
2018-05-04T21:56:03.859Z,94.50
2018-05-04T21:58:30.026Z,94.60
2018-05-04T22:00:57.331Z,94.10
2018-05-04T22:03:23.506Z,94.30
2018-05-04T22:05:49.661Z,94.60
2018-05-04T22:08:15.975Z,94.80
2018-05-04T22:10:42.235Z,94.80
2018-05-04T22:13:08.431Z,94.80
2018-05-04T22:15:35.806Z,94.40
2018-05-04T22:18:01.970Z,94.80
2018-05-04T22:20:28.143Z,94.80
2018-05-04T22:22:54.318Z,94.90
2018-05-04T22:27:49.018Z,94.60
2018-05-04T22:30:15.412Z,95.10
2018-05-04T22:32:41.634Z,95.20
2018-05-04T22:37:35.807Z,95.10
2018-05-04T22:40:01.991Z,95.20
2018-05-04T22:42:28.219Z,95.10
2018-05-04T22:44:55.490Z,94.60
2018-05-04T22:47:21.675Z,95.10
2018-05-04T22:52:16.024Z,95.10
2018-05-04T22:54:42.730Z,95.30
2018-05-04T22:57:09.198Z,95.30
2018-05-04T22:59:35.647Z,95.30
2018-05-04T23:02:02.081Z,95.30
2018-05-04T23:04:28.571Z,95.20
2018-05-04T23:06:54.794Z,95.40
2018-05-04T23:09:20.979Z,95.50
2018-05-04T23:11:47.170Z,95.40
2018-05-04T23:14:13.340Z,95.50
2018-05-04T23:16:39.537Z,95.50
2018-05-04T23:19:05.740Z,95.60
2018-05-04T23:21:31.967Z,95.80
2018-05-04T23:23:58.139Z,95.70
2018-05-04T23:26:25.483Z,95.40
2018-05-04T23:28:51.683Z,95.80
2018-05-04T23:31:18.202Z,95.90
2018-05-04T23:33:45.519Z,95.60
2018-05-04T23:36:11.712Z,96.00
2018-05-04T23:38:37.915Z,96.30
2018-05-04T23:41:04.128Z,96.20
2018-05-04T23:43:30.692Z,96.20
2018-05-04T23:45:57.089Z,96.10
2018-05-04T23:48:23.267Z,96.40
2018-05-04T23:50:49.478Z,96.60
2018-05-04T23:53:15.732Z,96.50
2018-05-04T23:55:42.267Z,96.60
2018-05-04T23:58:08.466Z,96.60
